CheckWX is a tool to help pilots better visualize weather data.  It is not intended as a substitute for an official pre-flight weather briefing.

02:29:54 UTC

EBBR TAF
Brussels Airport
Brussels, Belgium
TAF EBBR 232310Z 2400/2506 17008KT CAVOK PROB30 TEMPO 2408/2413 18015G25KT PROB40 TEMPO 2413/2421 18018G30KT 4000 SHRA PROB30 TEMPO 2414/2419 2000 TSRA PROB40 TEMPO 2505/2506 16018G30KT

Apr-24@
00:00 UTC

Apr-24 @ 00:00 UTC

Apr-25@
06:00 UTC

Apr-25 @ 06:00 UTC

TAF EBBR 232310Z 2400/2506 17008KT CAVOK
Wind
  • 170° at 8 KTS
Conditions
No significant weather
Cloud Levels
  • No significant clouds

Apr-24@
08:00 UTC

Apr-24 @ 08:00 UTC

Apr-24@
13:00 UTC

Apr-24 @ 13:00 UTC

PROB30 TEMPO 2408/2413 18015G25KT

Temporary - 30% Likelihood

Temporary - 30% Likelihood during this time.

Wind
  • 180° at 15 KTS
  • {Gusting to 25 KTS

Apr-24@
13:00 UTC

Apr-24 @ 13:00 UTC

Apr-24@
21:00 UTC

Apr-24 @ 21:00 UTC

PROB40 TEMPO 2413/2421 18018G30KT 4000 SHRA

Temporary - 40% Likelihood

Temporary - 40% Likelihood during this time.

Wind
  • 180° at 18 KTS
  • {Gusting to 30 KTS
Conditions
Rain

Apr-24@
14:00 UTC

Apr-24 @ 14:00 UTC

Apr-24@
19:00 UTC

Apr-24 @ 19:00 UTC

PROB30 TEMPO 2414/2419 2000 TSRA

Temporary - 30% Likelihood

Temporary - 30% Likelihood during this time.

Conditions
Thunderstorm, Rain

Apr-25@
05:00 UTC

Apr-25 @ 05:00 UTC

Apr-25@
06:00 UTC

Apr-25 @ 06:00 UTC

PROB40 TEMPO 2505/2506 16018G30KT

Temporary - 40% Likelihood

Temporary - 40% Likelihood during this time.

Wind
  • 160° at 18 KTS
  • {Gusting to 30 KTS